createdAt,value
2022-08-28T00:02:07.491Z,1.75
2022-08-28T00:04:35.087Z,1.00
2022-08-28T00:07:01.731Z,1.52
2022-08-28T00:09:27.605Z,1.33
2022-08-28T00:11:53.832Z,1.40
2022-08-28T00:14:21.203Z,1.48
2022-08-28T00:16:48.297Z,0.98
2022-08-28T00:19:15.894Z,1.60
2022-08-28T00:21:41.877Z,1.90
2022-08-28T00:24:08.293Z,1.65
2022-08-28T00:26:52.931Z,1.83
2022-08-28T00:29:18.743Z,1.63
2022-08-28T00:31:44.730Z,1.40
2022-08-28T00:34:10.695Z,1.42
2022-08-28T00:36:37.989Z,1.55
2022-08-28T00:39:05.263Z,1.75
2022-08-28T00:41:34.502Z,1.50
2022-08-28T00:44:28.663Z,1.65
2022-08-28T00:46:57.246Z,1.65
2022-08-28T00:49:27.705Z,1.58
2022-08-28T00:52:08.228Z,1.70
2022-08-28T00:54:41.706Z,1.23
2022-08-28T00:57:33.649Z,1.90
2022-08-28T00:59:59.722Z,1.40
2022-08-28T01:02:26.702Z,1.92
2022-08-28T01:04:53.988Z,1.80
2022-08-28T01:07:22.412Z,1.85
2022-08-28T01:09:52.767Z,1.90
2022-08-28T01:12:25.693Z,1.88
2022-08-28T01:14:57.760Z,1.70
2022-08-28T01:17:27.755Z,1.65
2022-08-28T01:20:00.191Z,1.52
2022-08-28T01:22:48.384Z,1.75
2022-08-28T01:25:18.455Z,2.13
2022-08-28T01:27:44.594Z,1.90
2022-08-28T01:30:14.144Z,2.40
2022-08-28T01:32:50.949Z,1.88
2022-08-28T01:35:22.057Z,2.22
2022-08-28T01:37:48.123Z,1.95
2022-08-28T01:40:19.539Z,2.00
2022-08-28T01:42:45.635Z,2.40
2022-08-28T01:45:17.693Z,1.92
2022-08-28T01:47:44.763Z,2.47
2022-08-28T01:50:14.165Z,1.88
2022-08-28T01:52:40.955Z,2.15
2022-08-28T01:55:08.010Z,2.58
2022-08-28T01:57:34.628Z,1.95
2022-08-28T02:00:00.861Z,3.00
2022-08-28T02:02:28.517Z,2.45
2022-08-28T02:04:54.309Z,2.55
2022-08-28T02:07:20.149Z,2.03
2022-08-28T02:09:46.253Z,3.22
2022-08-28T02:12:12.041Z,2.60
2022-08-28T02:14:38.126Z,2.63
2022-08-28T02:17:04.067Z,2.80
2022-08-28T02:19:31.257Z,2.90
2022-08-28T02:21:57.087Z,2.55
2022-08-28T02:24:23.031Z,2.72
2022-08-28T02:26:48.873Z,3.10
2022-08-28T02:29:14.709Z,3.33
2022-08-28T02:31:40.501Z,3.38
2022-08-28T02:34:06.405Z,2.95
2022-08-28T02:36:33.052Z,3.50
2022-08-28T02:38:58.977Z,3.50
2022-08-28T02:41:25.523Z,3.90
2022-08-28T02:43:51.599Z,2.67
2022-08-28T02:46:17.527Z,3.30
2022-08-28T02:48:44.021Z,2.97
2022-08-28T02:51:12.568Z,2.78
2022-08-28T02:53:39.938Z,3.65
2022-08-28T02:56:06.886Z,3.10
2022-08-28T02:58:33.866Z,3.53
2022-08-28T03:01:01.172Z,3.72
2022-08-28T03:03:30.393Z,3.20
2022-08-28T03:05:57.788Z,2.72
2022-08-28T03:08:27.292Z,3.25
2022-08-28T03:10:53.450Z,3.28
2022-08-28T03:13:23.123Z,3.03
2022-08-28T03:15:55.947Z,3.03
2022-08-28T03:18:23.687Z,3.50
2022-08-28T03:20:49.524Z,3.50
2022-08-28T03:23:27.533Z,3.05
2022-08-28T03:26:00.140Z,3.88
2022-08-28T03:28:29.983Z,3.38
2022-08-28T03:30:57.012Z,3.63
2022-08-28T03:33:25.537Z,3.10
2022-08-28T03:35:52.075Z,4.10
2022-08-28T03:38:18.927Z,4.05
2022-08-28T03:40:46.476Z,3.25
2022-08-28T03:43:15.012Z,3.90
2022-08-28T03:45:41.580Z,3.40
2022-08-28T03:48:07.861Z,3.58
2022-08-28T03:50:34.364Z,3.67
2022-08-28T03:53:00.189Z,3.65
2022-08-28T03:55:26.164Z,3.28
2022-08-28T03:57:52.164Z,3.97
2022-08-28T04:00:19.648Z,3.83
2022-08-28T04:02:45.598Z,3.78
2022-08-28T04:05:12.212Z,3.30
2022-08-28T04:07:38.784Z,3.78
2022-08-28T04:10:05.228Z,4.13
2022-08-28T04:12:32.847Z,4.20
2022-08-28T04:15:01.385Z,4.90
2022-08-28T04:17:27.272Z,4.70
2022-08-28T04:19:53.542Z,3.70
2022-08-28T04:22:20.233Z,4.32
2022-08-28T04:24:49.700Z,4.90
2022-08-28T04:27:15.468Z,4.40
2022-08-28T04:29:41.311Z,4.03
2022-08-28T04:32:07.248Z,4.25
2022-08-28T04:34:33.085Z,4.53
2022-08-28T04:36:58.922Z,4.63
2022-08-28T04:39:24.697Z,4.15
2022-08-28T04:41:50.544Z,4.03
2022-08-28T04:44:16.478Z,4.10
2022-08-28T04:46:42.704Z,4.57
2022-08-28T04:49:08.574Z,4.63
2022-08-28T04:51:36.840Z,4.50
2022-08-28T04:54:04.835Z,4.07
2022-08-28T04:56:30.909Z,4.45
2022-08-28T04:58:56.835Z,4.57
2022-08-28T05:01:24.401Z,3.85
2022-08-28T05:03:56.743Z,4.03
2022-08-28T05:06:26.061Z,4.13
2022-08-28T05:08:53.293Z,4.40
2022-08-28T05:11:33.417Z,4.32
2022-08-28T05:14:05.014Z,4.18
2022-08-28T05:16:32.138Z,4.55
2022-08-28T05:19:02.568Z,4.10
2022-08-28T05:21:28.397Z,4.30
2022-08-28T05:23:56.648Z,3.88
2022-08-28T05:26:22.849Z,4.50
2022-08-28T05:28:54.369Z,4.07
2022-08-28T05:31:21.863Z,4.45
2022-08-28T05:33:49.127Z,4.72
2022-08-28T05:36:16.921Z,4.65
2022-08-28T05:38:43.608Z,4.03
2022-08-28T05:41:09.409Z,4.38
2022-08-28T05:43:35.987Z,4.20
2022-08-28T05:46:06.797Z,3.97
2022-08-28T05:48:37.099Z,3.20
2022-08-28T05:51:07.756Z,3.65
2022-08-28T05:53:36.827Z,4.40
2022-08-28T05:56:04.389Z,3.70
2022-08-28T05:58:31.208Z,4.60
2022-08-28T06:01:08.998Z,3.85
2022-08-28T06:03:36.873Z,4.38
2022-08-28T06:06:03.596Z,3.72
2022-08-28T06:08:30.948Z,3.38
2022-08-28T06:10:57.757Z,4.00
2022-08-28T06:13:24.676Z,4.25
2022-08-28T06:15:50.662Z,4.13
2022-08-28T06:18:16.945Z,3.85
2022-08-28T06:20:44.932Z,4.00
2022-08-28T06:23:14.637Z,4.15
2022-08-28T06:25:48.387Z,3.78
2022-08-28T06:28:18.191Z,3.63
2022-08-28T06:31:08.946Z,4.85
2022-08-28T06:33:30.969Z,3.25
2022-08-28T06:35:56.852Z,3.58
2022-08-28T06:38:24.994Z,3.20
2022-08-28T06:40:53.353Z,3.70
2022-08-28T06:43:22.417Z,3.50
2022-08-28T06:45:51.180Z,3.45
2022-08-28T06:48:18.957Z,3.65
2022-08-28T06:50:48.893Z,3.17
2022-08-28T06:53:17.918Z,3.08
2022-08-28T06:55:43.965Z,3.10
2022-08-28T06:58:11.958Z,3.25
2022-08-28T07:00:39.648Z,3.88
2022-08-28T07:03:05.717Z,3.33
2022-08-28T07:05:33.286Z,3.30
2022-08-28T07:07:59.393Z,3.72
2022-08-28T07:10:28.678Z,2.92
2022-08-28T07:12:54.632Z,4.35
2022-08-28T07:15:20.773Z,3.50
2022-08-28T07:17:46.707Z,2.78
2022-08-28T07:20:12.842Z,2.78
2022-08-28T07:22:40.276Z,2.75
2022-08-28T07:25:08.397Z,2.55
2022-08-28T07:27:34.260Z,3.25
2022-08-28T07:30:01.289Z,2.63
2022-08-28T07:32:28.201Z,3.60
2022-08-28T07:34:56.372Z,3.17
2022-08-28T07:37:22.173Z,2.75
2022-08-28T07:39:48.906Z,2.50
2022-08-28T07:42:35.778Z,2.97
2022-08-28T07:45:02.128Z,2.83
2022-08-28T07:47:31.261Z,3.00
2022-08-28T07:49:59.935Z,2.88
2022-08-28T07:52:27.260Z,2.58
2022-08-28T07:54:54.132Z,3.65
2022-08-28T07:57:20.560Z,3.08
2022-08-28T07:59:48.851Z,2.78
2022-08-28T08:02:15.714Z,2.88
2022-08-28T08:04:42.238Z,2.72
2022-08-28T08:07:08.966Z,3.28
2022-08-28T08:09:42.975Z,3.40
2022-08-28T08:12:11.490Z,3.25
2022-08-28T08:14:38.713Z,3.40
2022-08-28T08:17:05.215Z,3.50
2022-08-28T08:19:33.909Z,2.90
2022-08-28T08:22:00.528Z,3.15
2022-08-28T08:24:27.766Z,3.15
2022-08-28T08:26:59.927Z,2.80
2022-08-28T08:29:32.462Z,2.95
2022-08-28T08:32:04.578Z,2.67
2022-08-28T08:34:32.295Z,2.53
2022-08-28T08:36:58.140Z,3.10
2022-08-28T08:39:24.045Z,3.10
2022-08-28T08:41:54.744Z,3.15
2022-08-28T08:44:35.966Z,2.70
2022-08-28T08:47:14.545Z,2.92
2022-08-28T08:49:55.087Z,2.67
2022-08-28T08:52:44.194Z,2.92
2022-08-28T08:55:22.603Z,2.92
2022-08-28T08:58:13.221Z,2.33
2022-08-28T09:00:51.540Z,2.28
2022-08-28T09:03:25.581Z,2.58
2022-08-28T09:05:57.441Z,2.90
2022-08-28T09:08:34.408Z,2.45
2022-08-28T09:11:06.328Z,2.78
2022-08-28T09:14:04.354Z,2.72
2022-08-28T09:16:34.860Z,2.85
2022-08-28T09:19:01.001Z,2.85
2022-08-28T09:21:31.167Z,2.80
2022-08-28T09:24:05.533Z,2.88
2022-08-28T09:26:32.198Z,2.75
2022-08-28T09:29:06.292Z,3.28
2022-08-28T09:31:41.148Z,3.05
2022-08-28T09:34:23.477Z,3.70
2022-08-28T09:36:50.613Z,2.97
2022-08-28T09:39:26.732Z,2.60
2022-08-28T09:42:32.832Z,2.80
2022-08-28T09:45:20.412Z,2.17
2022-08-28T09:47:53.227Z,3.08
2022-08-28T09:50:31.339Z,2.28
2022-08-28T09:53:19.792Z,2.03
2022-08-28T09:56:04.036Z,2.35
2022-08-28T09:58:49.040Z,2.20
2022-08-28T10:01:22.557Z,2.50
2022-08-28T10:03:55.357Z,2.20
2022-08-28T10:06:27.538Z,2.35
2022-08-28T10:09:25.725Z,2.53
2022-08-28T10:12:19.396Z,2.65
2022-08-28T10:15:02.435Z,2.47
2022-08-28T10:17:28.584Z,2.50
2022-08-28T10:20:14.846Z,1.98
2022-08-28T10:23:29.801Z,2.08
2022-08-28T10:26:40.527Z,2.38
2022-08-28T10:29:24.484Z,1.92
2022-08-28T10:32:02.401Z,2.40
2022-08-28T10:35:08.097Z,2.10
2022-08-28T10:37:52.184Z,2.20
2022-08-28T10:40:25.692Z,1.75
2022-08-28T10:43:14.223Z,2.40
2022-08-28T10:45:40.996Z,1.55
2022-08-28T10:48:16.834Z,2.30
2022-08-28T10:50:54.181Z,2.55
2022-08-28T10:53:27.235Z,2.17
2022-08-28T10:56:02.789Z,2.33
2022-08-28T10:58:31.358Z,2.10
2022-08-28T11:01:06.024Z,2.20
2022-08-28T11:03:45.856Z,2.15
2022-08-28T11:06:33.286Z,2.00
2022-08-28T11:09:22.604Z,1.83
2022-08-28T11:11:50.347Z,2.63
2022-08-28T11:14:48.407Z,2.42
2022-08-28T11:17:24.592Z,2.05
2022-08-28T11:19:56.152Z,2.42
2022-08-28T11:22:41.031Z,2.60
2022-08-28T11:25:26.591Z,2.20
2022-08-28T11:28:21.765Z,2.30
2022-08-28T11:31:08.601Z,2.30
2022-08-28T11:33:54.799Z,2.17
2022-08-28T11:36:20.836Z,2.45
2022-08-28T11:38:56.822Z,2.13
2022-08-28T11:41:28.590Z,2.13
2022-08-28T11:44:03.680Z,2.45
2022-08-28T11:46:34.560Z,1.92
2022-08-28T11:49:26.965Z,2.10
2022-08-28T11:52:20.003Z,1.98
2022-08-28T11:54:59.424Z,2.78
2022-08-28T11:57:46.231Z,2.13
2022-08-28T12:00:45.628Z,2.28
2022-08-28T12:03:53.502Z,1.83
2022-08-28T12:06:46.850Z,2.00
2022-08-28T12:09:38.925Z,1.83
2022-08-28T12:12:37.009Z,2.20
2022-08-28T12:15:08.074Z,1.60
2022-08-28T12:17:44.231Z,2.08
2022-08-28T12:20:20.557Z,1.92
2022-08-28T12:22:53.652Z,2.13
2022-08-28T12:25:41.474Z,1.60
2022-08-28T12:28:21.863Z,1.77
2022-08-28T12:30:58.757Z,2.22
2022-08-28T12:33:31.297Z,2.08
2022-08-28T12:36:05.515Z,2.10
2022-08-28T12:38:33.931Z,2.17
2022-08-28T12:41:02.039Z,2.22
2022-08-28T12:43:30.682Z,1.92
2022-08-28T12:45:58.840Z,1.90
2022-08-28T12:48:31.862Z,1.88
2022-08-28T12:51:00.879Z,1.83
2022-08-28T12:53:42.034Z,2.20
2022-08-28T12:56:14.933Z,1.70
2022-08-28T12:58:42.316Z,1.83
2022-08-28T13:01:14.364Z,2.17
2022-08-28T13:03:59.650Z,1.92
2022-08-28T13:09:00.820Z,1.88
2022-08-28T13:11:39.045Z,1.90
2022-08-28T13:14:07.865Z,1.90
2022-08-28T13:16:42.943Z,2.00
2022-08-28T13:19:12.222Z,1.90
2022-08-28T13:21:47.002Z,1.67
2022-08-28T13:26:58.511Z,1.80
2022-08-28T13:29:24.545Z,1.40
2022-08-28T13:32:00.155Z,1.50
2022-08-28T13:34:31.454Z,1.55
2022-08-28T13:36:59.171Z,1.90
2022-08-28T13:39:27.562Z,2.08
2022-08-28T13:41:57.635Z,1.70
2022-08-28T13:44:36.040Z,1.80
2022-08-28T13:47:06.165Z,1.75
2022-08-28T13:49:33.379Z,1.45
2022-08-28T13:52:01.685Z,1.38
2022-08-28T13:54:29.463Z,1.55
2022-08-28T13:56:57.570Z,1.85
2022-08-28T13:59:24.058Z,1.60
2022-08-28T14:02:12.690Z,1.40
2022-08-28T14:04:39.423Z,1.90
2022-08-28T14:07:07.233Z,1.38
2022-08-28T14:09:34.631Z,1.67
2022-08-28T14:12:01.838Z,1.40
2022-08-28T14:14:28.180Z,1.23
2022-08-28T14:16:55.243Z,1.63
2022-08-28T14:19:21.659Z,1.88
2022-08-28T14:21:47.811Z,1.80
2022-08-28T14:24:13.961Z,1.60
2022-08-28T14:26:39.952Z,1.35
2022-08-28T14:29:08.961Z,1.30
2022-08-28T14:31:36.107Z,2.08
2022-08-28T14:34:04.133Z,1.20
2022-08-28T14:36:31.231Z,1.48
2022-08-28T14:39:04.020Z,1.60
2022-08-28T14:41:32.024Z,1.40
2022-08-28T14:43:58.221Z,1.50
2022-08-28T14:46:27.838Z,1.45
2022-08-28T14:48:59.536Z,1.67
2022-08-28T14:51:26.241Z,1.90
2022-08-28T14:53:52.581Z,1.73
2022-08-28T14:56:20.520Z,1.73
2022-08-28T14:58:46.513Z,1.52
2022-08-28T15:01:22.707Z,1.55
2022-08-28T15:03:48.948Z,1.67
2022-08-28T15:06:15.487Z,1.35
2022-08-28T15:08:41.494Z,1.73
2022-08-28T15:11:10.301Z,1.58
2022-08-28T15:13:37.198Z,1.52
2022-08-28T15:16:14.638Z,1.58
2022-08-28T15:18:43.666Z,1.48
2022-08-28T15:21:20.791Z,1.83
2022-08-28T15:23:51.435Z,1.42
2022-08-28T15:26:18.766Z,1.70
2022-08-28T15:28:45.283Z,1.70
2022-08-28T15:31:11.611Z,1.17
2022-08-28T15:33:40.127Z,1.45
2022-08-28T15:36:08.937Z,1.52
2022-08-28T15:38:53.325Z,1.73
2022-08-28T15:41:24.491Z,1.30
2022-08-28T15:43:53.019Z,1.55
2022-08-28T15:46:19.340Z,1.52
2022-08-28T15:48:47.527Z,1.38
2022-08-28T15:51:14.830Z,1.45
2022-08-28T15:53:41.444Z,1.70
2022-08-28T15:56:08.364Z,1.52
2022-08-28T15:58:35.370Z,1.48
2022-08-28T16:01:03.240Z,1.50
2022-08-28T16:03:29.136Z,1.83
2022-08-28T16:05:55.302Z,1.17
2022-08-28T16:08:21.453Z,1.30
2022-08-28T16:10:49.126Z,1.10
2022-08-28T16:13:16.630Z,1.30
2022-08-28T16:15:43.787Z,1.50
2022-08-28T16:18:12.158Z,1.40
2022-08-28T16:20:42.615Z,1.48
2022-08-28T16:23:10.120Z,1.58
2022-08-28T16:25:36.136Z,1.50
2022-08-28T16:28:03.172Z,1.95
2022-08-28T16:30:29.149Z,1.60
2022-08-28T16:32:55.083Z,1.70
2022-08-28T16:35:21.629Z,1.33
2022-08-28T16:37:47.711Z,1.52
2022-08-28T16:40:14.860Z,1.42
2022-08-28T16:42:41.306Z,1.20
2022-08-28T16:45:09.121Z,1.17
2022-08-28T16:47:37.230Z,1.48
2022-08-28T16:50:12.263Z,1.30
2022-08-28T16:52:38.303Z,1.45
2022-08-28T16:55:06.767Z,1.55
2022-08-28T16:57:33.426Z,1.63
2022-08-28T16:59:59.731Z,1.38
2022-08-28T17:02:26.876Z,1.38
2022-08-28T17:04:55.252Z,1.15
2022-08-28T17:07:21.484Z,1.52
2022-08-28T17:09:47.526Z,1.27
2022-08-28T17:12:13.741Z,1.27
2022-08-28T17:14:41.233Z,1.33
2022-08-28T17:17:07.156Z,1.10
2022-08-28T17:19:33.132Z,1.25
2022-08-28T17:22:17.748Z,1.50
2022-08-28T17:24:47.067Z,1.10
2022-08-28T17:27:16.740Z,1.40
2022-08-28T17:29:48.594Z,1.63
2022-08-28T17:32:14.519Z,1.42
2022-08-28T17:34:40.589Z,1.73
2022-08-28T17:37:06.565Z,1.40
2022-08-28T17:39:32.481Z,1.30
2022-08-28T17:41:59.227Z,1.27
2022-08-28T17:44:25.338Z,1.63
2022-08-28T17:46:51.236Z,1.80
2022-08-28T17:49:17.709Z,1.27
2022-08-28T17:51:44.572Z,1.63
2022-08-28T17:54:20.663Z,1.40
2022-08-28T17:56:47.176Z,1.30
2022-08-28T17:59:13.893Z,2.03
2022-08-28T18:01:41.237Z,1.55
2022-08-28T18:04:08.119Z,1.25
2022-08-28T18:06:34.397Z,1.25
2022-08-28T18:09:00.760Z,1.63
2022-08-28T18:11:27.332Z,1.30
2022-08-28T18:13:53.484Z,1.50
2022-08-28T18:16:19.508Z,2.40
2022-08-28T18:18:45.394Z,1.73
2022-08-28T18:21:12.571Z,1.70
2022-08-28T18:23:39.704Z,1.30
2022-08-28T18:26:07.359Z,1.50
2022-08-28T18:28:33.354Z,1.60
2022-08-28T18:31:00.510Z,2.00
2022-08-28T18:33:26.989Z,1.65
2022-08-28T18:35:53.513Z,2.22
2022-08-28T18:38:22.180Z,1.88
2022-08-28T18:40:48.589Z,1.27
2022-08-28T18:43:16.526Z,1.33
2022-08-28T18:45:42.419Z,1.77
2022-08-28T18:48:08.383Z,1.58
2022-08-28T18:50:34.854Z,1.25
2022-08-28T18:53:01.513Z,1.60
2022-08-28T18:55:30.350Z,1.80
2022-08-28T18:57:59.567Z,1.88
2022-08-28T19:00:26.802Z,1.67
2022-08-28T19:02:53.655Z,1.30
2022-08-28T19:05:20.610Z,1.55
2022-08-28T19:07:47.228Z,1.50
2022-08-28T19:10:32.007Z,1.40
2022-08-28T19:13:00.240Z,2.10
2022-08-28T19:15:26.193Z,2.20
2022-08-28T19:17:52.061Z,1.55
2022-08-28T19:20:19.713Z,2.00
2022-08-28T19:22:47.929Z,1.50
2022-08-28T19:25:22.386Z,1.48
2022-08-28T19:27:54.700Z,1.50
2022-08-28T19:30:25.608Z,2.17
2022-08-28T19:32:51.575Z,1.35
2022-08-28T19:35:17.716Z,1.73
2022-08-28T19:37:44.223Z,1.70
2022-08-28T19:40:12.231Z,1.73
2022-08-28T19:42:38.341Z,1.52
2022-08-28T19:45:09.949Z,1.88
2022-08-28T19:47:35.859Z,1.90
2022-08-28T19:50:03.841Z,1.65
2022-08-28T19:52:29.879Z,1.90
2022-08-28T19:54:55.811Z,2.08
2022-08-28T19:57:21.699Z,2.00
2022-08-28T19:59:48.393Z,2.15
2022-08-28T20:02:14.347Z,1.75
2022-08-28T20:04:40.320Z,1.77
2022-08-28T20:07:06.224Z,1.98
2022-08-28T20:09:32.329Z,1.40
2022-08-28T20:12:00.044Z,2.00
2022-08-28T20:14:26.305Z,1.45
2022-08-28T20:16:53.709Z,2.10
2022-08-28T20:19:20.310Z,1.80
2022-08-28T20:21:49.254Z,1.77
2022-08-28T20:24:22.907Z,1.80
2022-08-28T20:26:49.705Z,2.00
2022-08-28T20:29:15.998Z,2.45
2022-08-28T20:31:44.621Z,2.30
2022-08-28T20:34:11.574Z,1.67
2022-08-28T20:36:37.993Z,1.92
2022-08-28T20:39:06.503Z,1.95
2022-08-28T20:41:33.564Z,2.00
2022-08-28T20:44:04.160Z,2.00
2022-08-28T20:46:31.507Z,1.70
2022-08-28T20:48:59.031Z,2.20
2022-08-28T20:51:45.120Z,2.15
2022-08-28T20:54:11.310Z,2.03
2022-08-28T20:56:37.391Z,2.08
2022-08-28T20:59:03.661Z,2.08
2022-08-28T21:01:29.624Z,2.03
2022-08-28T21:03:55.536Z,2.05
2022-08-28T21:06:21.407Z,2.05
2022-08-28T21:08:49.461Z,2.55
2022-08-28T21:11:18.598Z,2.00
2022-08-28T21:13:44.493Z,1.40
2022-08-28T21:16:10.412Z,2.53
2022-08-28T21:18:36.366Z,2.28
2022-08-28T21:21:05.920Z,2.30
2022-08-28T21:23:32.401Z,2.30
2022-08-28T21:25:58.905Z,1.92
2022-08-28T21:28:25.273Z,1.77
2022-08-28T21:30:53.271Z,2.65
2022-08-28T21:33:20.048Z,1.83
2022-08-28T21:35:45.989Z,2.03
2022-08-28T21:38:11.910Z,1.45
2022-08-28T21:40:39.952Z,1.92
2022-08-28T21:43:06.247Z,1.75
2022-08-28T21:45:32.792Z,2.60
2022-08-28T21:47:58.863Z,1.90
2022-08-28T21:50:28.377Z,1.90
2022-08-28T21:52:55.449Z,2.00
2022-08-28T21:55:22.110Z,1.65
2022-08-28T21:57:48.302Z,1.83
2022-08-28T22:00:19.839Z,2.03
2022-08-28T22:02:46.745Z,2.13
2022-08-28T22:05:13.156Z,1.70
2022-08-28T22:07:39.705Z,1.95
2022-08-28T22:10:08.068Z,2.08
2022-08-28T22:12:34.057Z,2.00
2022-08-28T22:14:59.959Z,1.70
2022-08-28T22:17:25.912Z,2.17
2022-08-28T22:19:52.069Z,1.70
2022-08-28T22:22:36.788Z,1.90
2022-08-28T22:25:03.875Z,1.95
2022-08-28T22:27:31.199Z,2.00
2022-08-28T22:29:57.642Z,1.70
2022-08-28T22:32:26.012Z,1.58
2022-08-28T22:34:53.432Z,1.85
2022-08-28T22:37:19.482Z,1.90
2022-08-28T22:39:45.318Z,1.90
2022-08-28T22:42:11.143Z,1.88
2022-08-28T22:44:37.743Z,2.00
2022-08-28T22:47:04.519Z,2.05
2022-08-28T22:49:30.417Z,2.08
2022-08-28T22:51:56.646Z,2.30
2022-08-28T22:54:22.548Z,2.10
2022-08-28T22:56:48.463Z,2.00
2022-08-28T22:59:14.492Z,2.03
2022-08-28T23:01:42.046Z,2.20
2022-08-28T23:04:09.611Z,2.35
2022-08-28T23:06:38.958Z,2.28
2022-08-28T23:09:06.630Z,2.08
2022-08-28T23:11:34.455Z,2.05
2022-08-28T23:14:00.692Z,2.75
2022-08-28T23:16:26.698Z,2.22
2022-08-28T23:19:08.866Z,1.98
2022-08-28T23:21:36.020Z,2.05
2022-08-28T23:24:06.845Z,2.40
2022-08-28T23:26:33.207Z,1.83
2022-08-28T23:28:59.365Z,1.98
2022-08-28T23:31:25.474Z,3.10
2022-08-28T23:33:51.433Z,2.30
2022-08-28T23:36:18.161Z,2.35
2022-08-28T23:38:44.397Z,2.33
2022-08-28T23:41:11.303Z,1.98
2022-08-28T23:43:37.540Z,2.58
2022-08-28T23:46:04.289Z,2.00
2022-08-28T23:48:31.396Z,2.40
2022-08-28T23:50:58.296Z,1.92
2022-08-28T23:53:25.026Z,2.42
2022-08-28T23:55:50.859Z,2.85
2022-08-28T23:58:17.648Z,2.28
